sensor_id;sensor_type;location;lat;lon;timestamp;temperature;humidity
66831;DHT22;53739;44.224;22.528;2022-08-25T00:01:31;563.70;2432.00
66831;DHT22;53739;44.224;22.528;2022-08-25T00:03:58;563.70;2432.00
66831;DHT22;53739;44.224;22.528;2022-08-25T00:06:24;563.60;2432.00
66831;DHT22;53739;44.224;22.528;2022-08-25T00:08:50;563.60;2432.00
66831;DHT22;53739;44.224;22.528;2022-08-25T00:11:22;563.70;2432.00
66831;DHT22;53739;44.224;22.528;2022-08-25T00:13:51;563.60;2432.00
66831;DHT22;53739;44.224;22.528;2022-08-25T00:16:19;563.70;2432.00
66831;DHT22;53739;44.224;22.528;2022-08-25T00:18:49;563.70;2432.00
66831;DHT22;53739;44.224;22.528;2022-08-25T00:21:16;563.70;2432.00
66831;DHT22;53739;44.224;22.528;2022-08-25T00:23:42;563.70;2432.00
66831;DHT22;53739;44.224;22.528;2022-08-25T00:26:10;563.60;2432.00
66831;DHT22;53739;44.224;22.528;2022-08-25T00:28:37;563.70;2432.00
66831;DHT22;53739;44.224;22.528;2022-08-25T00:31:05;563.70;2432.00
66831;DHT22;53739;44.224;22.528;2022-08-25T00:33:32;563.60;2432.00
66831;DHT22;53739;44.224;22.528;2022-08-25T00:35:58;563.60;2432.00
66831;DHT22;53739;44.224;22.528;2022-08-25T00:38:25;563.60;2432.00
66831;DHT22;53739;44.224;22.528;2022-08-25T00:40:51;563.60;2432.00
66831;DHT22;53739;44.224;22.528;2022-08-25T00:43:55;563.60;2432.00
66831;DHT22;53739;44.224;22.528;2022-08-25T00:46:34;563.60;2432.00
66831;DHT22;53739;44.224;22.528;2022-08-25T00:49:05;563.60;2432.00
66831;DHT22;53739;44.224;22.528;2022-08-25T00:51:42;563.60;2432.00
66831;DHT22;53739;44.224;22.528;2022-08-25T00:54:13;563.60;2432.00
66831;DHT22;53739;44.224;22.528;2022-08-25T00:56:40;563.60;2432.00
66831;DHT22;53739;44.224;22.528;2022-08-25T00:59:07;563.60;2432.00
66831;DHT22;53739;44.224;22.528;2022-08-25T01:01:33;563.60;2432.00
66831;DHT22;53739;44.224;22.528;2022-08-25T01:03:59;563.60;2432.00
66831;DHT22;53739;44.224;22.528;2022-08-25T01:06:27;563.60;2432.00
66831;DHT22;53739;44.224;22.528;2022-08-25T01:08:54;563.60;2432.00
66831;DHT22;53739;44.224;22.528;2022-08-25T01:11:20;563.60;2432.00
66831;DHT22;53739;44.224;22.528;2022-08-25T01:13:50;563.50;2432.00
66831;DHT22;53739;44.224;22.528;2022-08-25T01:16:17;563.60;2432.00
66831;DHT22;53739;44.224;22.528;2022-08-25T01:18:55;563.50;2432.00
66831;DHT22;53739;44.224;22.528;2022-08-25T01:21:24;563.50;2432.00
66831;DHT22;53739;44.224;22.528;2022-08-25T01:23:51;563.50;2432.00
66831;DHT22;53739;44.224;22.528;2022-08-25T01:26:27;563.50;2432.00
66831;DHT22;53739;44.224;22.528;2022-08-25T01:28:54;563.40;2432.00
66831;DHT22;53739;44.224;22.528;2022-08-25T01:31:39;563.30;2432.00
66831;DHT22;53739;44.224;22.528;2022-08-25T01:34:07;563.40;2432.00
66831;DHT22;53739;44.224;22.528;2022-08-25T01:36:34;563.30;2432.00
66831;DHT22;53739;44.224;22.528;2022-08-25T01:39:01;563.30;2432.00
66831;DHT22;53739;44.224;22.528;2022-08-25T01:41:39;563.30;2432.00
66831;DHT22;53739;44.224;22.528;2022-08-25T01:44:06;563.20;2432.00
66831;DHT22;53739;44.224;22.528;2022-08-25T01:46:32;563.20;2432.00
66831;DHT22;53739;44.224;22.528;2022-08-25T01:49:00;563.20;2432.00
66831;DHT22;53739;44.224;22.528;2022-08-25T01:51:29;563.20;2432.00
66831;DHT22;53739;44.224;22.528;2022-08-25T01:53:57;563.20;2432.00
66831;DHT22;53739;44.224;22.528;2022-08-25T01:56:23;563.20;2432.00
66831;DHT22;53739;44.224;22.528;2022-08-25T01:58:49;563.20;2432.00
66831;DHT22;53739;44.224;22.528;2022-08-25T02:01:21;563.20;2432.00
66831;DHT22;53739;44.224;22.528;2022-08-25T02:03:49;563.20;2432.00
66831;DHT22;53739;44.224;22.528;2022-08-25T02:06:17;538.50;2406.40
66831;DHT22;53739;44.224;22.528;2022-08-25T02:08:44;538.50;2406.40
66831;DHT22;53739;44.224;22.528;2022-08-25T02:11:11;538.50;2406.40
66831;DHT22;53739;44.224;22.528;2022-08-25T02:13:39;538.50;2406.40
66831;DHT22;53739;44.224;22.528;2022-08-25T02:16:05;538.50;2406.40
66831;DHT22;53739;44.224;22.528;2022-08-25T02:18:32;538.50;2406.40
66831;DHT22;53739;44.224;22.528;2022-08-25T02:20:58;538.40;2406.40
66831;DHT22;53739;44.224;22.528;2022-08-25T02:23:23;538.40;2406.40
66831;DHT22;53739;44.224;22.528;2022-08-25T02:25:49;538.40;2406.40
66831;DHT22;53739;44.224;22.528;2022-08-25T02:28:15;538.30;2406.40
66831;DHT22;53739;44.224;22.528;2022-08-25T02:30:42;538.40;2406.40
66831;DHT22;53739;44.224;22.528;2022-08-25T02:33:08;538.30;2406.40
66831;DHT22;53739;44.224;22.528;2022-08-25T02:35:35;538.30;2406.40
66831;DHT22;53739;44.224;22.528;2022-08-25T02:38:01;538.20;2406.40
66831;DHT22;53739;44.224;22.528;2022-08-25T02:40:27;538.20;2406.40
66831;DHT22;53739;44.224;22.528;2022-08-25T02:42:53;538.20;2406.40
66831;DHT22;53739;44.224;22.528;2022-08-25T02:45:20;538.20;2406.40
66831;DHT22;53739;44.224;22.528;2022-08-25T02:47:46;538.10;2406.40
66831;DHT22;53739;44.224;22.528;2022-08-25T02:50:12;538.10;2406.40
66831;DHT22;53739;44.224;22.528;2022-08-25T02:52:38;538.10;2406.40
66831;DHT22;53739;44.224;22.528;2022-08-25T02:55:08;538.10;2406.40
66831;DHT22;53739;44.224;22.528;2022-08-25T02:57:34;538.10;2406.40
66831;DHT22;53739;44.224;22.528;2022-08-25T03:00:00;538.10;2406.40
66831;DHT22;53739;44.224;22.528;2022-08-25T03:02:26;538.10;2406.40
66831;DHT22;53739;44.224;22.528;2022-08-25T03:04:53;538.10;2406.40
66831;DHT22;53739;44.224;22.528;2022-08-25T03:07:19;538.00;2406.40
66831;DHT22;53739;44.224;22.528;2022-08-25T03:09:46;538.00;2406.40
66831;DHT22;53739;44.224;22.528;2022-08-25T03:12:13;538.10;2406.40
66831;DHT22;53739;44.224;22.528;2022-08-25T03:14:39;538.10;2406.40
66831;DHT22;53739;44.224;22.528;2022-08-25T03:17:06;538.10;2406.40
66831;DHT22;53739;44.224;22.528;2022-08-25T03:19:33;538.10;2406.40
66831;DHT22;53739;44.224;22.528;2022-08-25T03:21:58;538.20;2406.40
66831;DHT22;53739;44.224;22.528;2022-08-25T03:24:25;538.20;2406.40
66831;DHT22;53739;44.224;22.528;2022-08-25T03:26:51;538.10;2406.40
66831;DHT22;53739;44.224;22.528;2022-08-25T03:29:23;538.20;2406.40
66831;DHT22;53739;44.224;22.528;2022-08-25T03:31:51;538.20;2406.40
66831;DHT22;53739;44.224;22.528;2022-08-25T03:34:18;538.20;2406.40
66831;DHT22;53739;44.224;22.528;2022-08-25T03:36:47;538.20;2406.40
66831;DHT22;53739;44.224;22.528;2022-08-25T03:39:14;538.20;2406.40
66831;DHT22;53739;44.224;22.528;2022-08-25T03:41:40;538.20;2406.40
66831;DHT22;53739;44.224;22.528;2022-08-25T03:44:07;538.20;2406.40
66831;DHT22;53739;44.224;22.528;2022-08-25T03:46:38;538.20;2406.40
66831;DHT22;53739;44.224;22.528;2022-08-25T03:49:07;538.20;2406.40
66831;DHT22;53739;44.224;22.528;2022-08-25T03:51:43;538.20;2406.40
66831;DHT22;53739;44.224;22.528;2022-08-25T03:54:10;538.20;2406.40
66831;DHT22;53739;44.224;22.528;2022-08-25T03:56:36;538.20;2406.40
66831;DHT22;53739;44.224;22.528;2022-08-25T03:59:02;538.20;2406.40
66831;DHT22;53739;44.224;22.528;2022-08-25T04:01:29;538.20;2406.40
66831;DHT22;53739;44.224;22.528;2022-08-25T04:03:55;538.20;2406.40
66831;DHT22;53739;44.224;22.528;2022-08-25T04:06:21;538.20;2406.40
66831;DHT22;53739;44.224;22.528;2022-08-25T04:08:48;538.20;2406.40
66831;DHT22;53739;44.224;22.528;2022-08-25T04:11:17;538.20;2406.40
66831;DHT22;53739;44.224;22.528;2022-08-25T04:13:44;538.20;2406.40
66831;DHT22;53739;44.224;22.528;2022-08-25T04:16:22;538.20;2406.40
66831;DHT22;53739;44.224;22.528;2022-08-25T04:18:50;538.30;2406.40
66831;DHT22;53739;44.224;22.528;2022-08-25T04:21:17;538.30;2406.40
66831;DHT22;53739;44.224;22.528;2022-08-25T04:23:45;538.30;2406.40
66831;DHT22;53739;44.224;22.528;2022-08-25T04:26:19;538.30;2406.40
66831;DHT22;53739;44.224;22.528;2022-08-25T04:28:46;538.40;2406.40
66831;DHT22;53739;44.224;22.528;2022-08-25T04:31:13;538.40;2406.40
66831;DHT22;53739;44.224;22.528;2022-08-25T04:33:40;538.50;2406.40
66831;DHT22;53739;44.224;22.528;2022-08-25T04:36:08;538.50;2406.40
66831;DHT22;53739;44.224;22.528;2022-08-25T04:38:37;538.50;2406.40
66831;DHT22;53739;44.224;22.528;2022-08-25T04:41:05;538.50;2406.40
66831;DHT22;53739;44.224;22.528;2022-08-25T04:43:32;563.20;2432.00
66831;DHT22;53739;44.224;22.528;2022-08-25T04:45:59;563.20;2432.00
66831;DHT22;53739;44.224;22.528;2022-08-25T04:48:25;563.30;2432.00
66831;DHT22;53739;44.224;22.528;2022-08-25T04:50:51;563.40;2432.00
66831;DHT22;53739;44.224;22.528;2022-08-25T04:53:17;563.40;2432.00
66831;DHT22;53739;44.224;22.528;2022-08-25T04:55:45;563.50;2432.00
66831;DHT22;53739;44.224;22.528;2022-08-25T04:58:13;563.50;2432.00
66831;DHT22;53739;44.224;22.528;2022-08-25T05:00:40;563.60;2432.00
66831;DHT22;53739;44.224;22.528;2022-08-25T05:03:22;563.60;2432.00
66831;DHT22;53739;44.224;22.528;2022-08-25T05:05:55;563.70;2432.00
66831;DHT22;53739;44.224;22.528;2022-08-25T05:08:22;563.80;2432.00
66831;DHT22;53739;44.224;22.528;2022-08-25T05:10:48;563.80;2432.00
66831;DHT22;53739;44.224;22.528;2022-08-25T05:13:15;563.80;2432.00
66831;DHT22;53739;44.224;22.528;2022-08-25T05:15:41;564.00;2432.00
66831;DHT22;53739;44.224;22.528;2022-08-25T05:18:16;564.10;2432.00
66831;DHT22;53739;44.224;22.528;2022-08-25T05:20:45;588.80;2432.00
66831;DHT22;53739;44.224;22.528;2022-08-25T05:23:21;588.90;2432.00
66831;DHT22;53739;44.224;22.528;2022-08-25T05:26:03;589.10;2432.00
66831;DHT22;53739;44.224;22.528;2022-08-25T05:28:32;589.20;2432.00
66831;DHT22;53739;44.224;22.528;2022-08-25T05:31:00;589.40;2432.00
66831;DHT22;53739;44.224;22.528;2022-08-25T05:33:29;589.40;2432.00
66831;DHT22;53739;44.224;22.528;2022-08-25T05:36:22;589.60;2432.00
66831;DHT22;53739;44.224;22.528;2022-08-25T05:38:51;589.70;2432.00
66831;DHT22;53739;44.224;22.528;2022-08-25T05:41:35;614.50;2432.00
66831;DHT22;53739;44.224;22.528;2022-08-25T05:51:04;614.60;2432.00
66831;DHT22;53739;44.224;22.528;2022-08-25T05:54:18;614.90;2432.00
66831;DHT22;53739;44.224;22.528;2022-08-25T05:56:44;615.20;2432.00
66831;DHT22;53739;44.224;22.528;2022-08-25T05:59:10;615.30;2432.00
66831;DHT22;53739;44.224;22.528;2022-08-25T06:01:36;615.30;2432.00
66831;DHT22;53739;44.224;22.528;2022-08-25T06:04:20;640.00;2432.00
66831;DHT22;53739;44.224;22.528;2022-08-25T06:06:47;640.50;2432.00
66831;DHT22;53739;44.224;22.528;2022-08-25T06:09:14;640.50;2432.00
66831;DHT22;53739;44.224;22.528;2022-08-25T06:11:40;640.60;2432.00
66831;DHT22;53739;44.224;22.528;2022-08-25T06:14:07;640.90;2432.00
66831;DHT22;53739;44.224;22.528;2022-08-25T06:16:33;665.80;2432.00
66831;DHT22;53739;44.224;22.528;2022-08-25T06:18:59;665.90;2432.00
66831;DHT22;53739;44.224;22.528;2022-08-25T06:21:25;666.00;2432.00
66831;DHT22;53739;44.224;22.528;2022-08-25T06:23:51;666.20;2432.00
66831;DHT22;53739;44.224;22.528;2022-08-25T06:26:17;666.40;2432.00
66831;DHT22;53739;44.224;22.528;2022-08-25T06:28:43;691.40;2432.00
66831;DHT22;53739;44.224;22.528;2022-08-25T06:31:08;691.50;2432.00
66831;DHT22;53739;44.224;22.528;2022-08-25T06:33:34;691.80;2432.00
66831;DHT22;53739;44.224;22.528;2022-08-25T06:36:00;691.80;2432.00
66831;DHT22;53739;44.224;22.528;2022-08-25T06:38:29;691.80;2432.00
66831;DHT22;53739;44.224;22.528;2022-08-25T06:40:55;692.10;2432.00
66831;DHT22;53739;44.224;22.528;2022-08-25T06:43:23;716.90;2432.00
66831;DHT22;53739;44.224;22.528;2022-08-25T06:45:51;717.20;2432.00
66831;DHT22;53739;44.224;22.528;2022-08-25T09:31:23;820.10;2432.00
66831;DHT22;53739;44.224;22.528;2022-08-25T10:18:44;845.20;2432.00
66831;DHT22;53739;44.224;22.528;2022-08-25T10:22:00;845.20;2201.60
66831;DHT22;53739;44.224;22.528;2022-08-25T10:24:34;845.20;2227.20
66831;DHT22;53739;44.224;22.528;2022-08-25T10:29:58;844.90;2227.20
66831;DHT22;53739;44.224;22.528;2022-08-25T10:39:03;845.50;2329.60
66831;DHT22;53739;44.224;22.528;2022-08-25T10:41:39;845.20;2099.20
66831;DHT22;53739;44.224;22.528;2022-08-25T10:44:19;845.40;2099.20
66831;DHT22;53739;44.224;22.528;2022-08-25T10:58:03;845.50;1996.80
66831;DHT22;53739;44.224;22.528;2022-08-25T11:00:39;845.40;2227.20
66831;DHT22;53739;44.224;22.528;2022-08-25T11:05:49;845.40;2099.20
66831;DHT22;53739;44.224;22.528;2022-08-25T11:08:39;845.60;2124.80
66831;DHT22;53739;44.224;22.528;2022-08-25T11:11:38;845.70;2252.80
66831;DHT22;53739;44.224;22.528;2022-08-25T11:14:30;870.50;2252.80
66831;DHT22;53739;44.224;22.528;2022-08-25T11:17:03;870.70;2329.60
66831;DHT22;53739;44.224;22.528;2022-08-25T11:19:46;870.70;2406.40
66831;DHT22;53739;44.224;22.528;2022-08-25T11:22:32;870.50;2099.20
66831;DHT22;53739;44.224;22.528;2022-08-25T11:31:29;845.60;2201.60
66831;DHT22;53739;44.224;22.528;2022-08-25T11:33:55;845.50;2304.00
66831;DHT22;53739;44.224;22.528;2022-08-25T11:36:33;845.40;2176.00
66831;DHT22;53739;44.224;22.528;2022-08-25T11:53:47;819.60;2073.60
66831;DHT22;53739;44.224;22.528;2022-08-25T11:56:35;819.60;2124.80
66831;DHT22;53739;44.224;22.528;2022-08-25T11:59:08;819.30;2099.20
66831;DHT22;53739;44.224;22.528;2022-08-25T12:14:55;819.80;2048.00
66831;DHT22;53739;44.224;22.528;2022-08-25T12:17:38;819.90;2176.00
66831;DHT22;53739;44.224;22.528;2022-08-25T12:20:04;819.90;2073.60
66831;DHT22;53739;44.224;22.528;2022-08-25T12:25:34;819.60;2099.20
66831;DHT22;53739;44.224;22.528;2022-08-25T12:32:00;819.50;2150.40
66831;DHT22;53739;44.224;22.528;2022-08-25T12:37:23;819.40;2073.60
66831;DHT22;53739;44.224;22.528;2022-08-25T13:26:14;819.50;2099.20
66831;DHT22;53739;44.224;22.528;2022-08-25T13:28:41;819.20;2048.00
66831;DHT22;53739;44.224;22.528;2022-08-25T13:31:17;794.50;2176.00
66831;DHT22;53739;44.224;22.528;2022-08-25T13:34:15;794.40;2252.80
66831;DHT22;53739;44.224;22.528;2022-08-25T13:43:03;819.30;2201.60
66831;DHT22;53739;44.224;22.528;2022-08-25T13:45:33;819.50;2201.60
66831;DHT22;53739;44.224;22.528;2022-08-25T13:48:05;819.60;2073.60
66831;DHT22;53739;44.224;22.528;2022-08-25T13:51:02;819.70;2124.80
66831;DHT22;53739;44.224;22.528;2022-08-25T13:53:39;819.80;2176.00
66831;DHT22;53739;44.224;22.528;2022-08-25T13:56:05;819.80;2150.40
66831;DHT22;53739;44.224;22.528;2022-08-25T13:58:40;819.60;2124.80
66831;DHT22;53739;44.224;22.528;2022-08-25T14:01:21;819.60;2406.40
66831;DHT22;53739;44.224;22.528;2022-08-25T14:06:39;819.30;2048.00
66831;DHT22;53739;44.224;22.528;2022-08-25T14:09:11;819.50;2099.20
66831;DHT22;53739;44.224;22.528;2022-08-25T14:12:05;819.60;2329.60
66831;DHT22;53739;44.224;22.528;2022-08-25T14:21:26;819.60;2227.20
66831;DHT22;53739;44.224;22.528;2022-08-25T14:23:53;819.60;2124.80
66831;DHT22;53739;44.224;22.528;2022-08-25T14:26:20;819.30;2201.60
66831;DHT22;53739;44.224;22.528;2022-08-25T14:28:46;819.30;1996.80
66831;DHT22;53739;44.224;22.528;2022-08-25T14:31:28;819.30;2022.40
66831;DHT22;53739;44.224;22.528;2022-08-25T14:33:58;819.30;2099.20
66831;DHT22;53739;44.224;22.528;2022-08-25T14:36:26;819.50;2124.80
66831;DHT22;53739;44.224;22.528;2022-08-25T14:38:53;819.60;2150.40
66831;DHT22;53739;44.224;22.528;2022-08-25T14:41:19;819.60;2176.00
66831;DHT22;53739;44.224;22.528;2022-08-25T14:43:46;819.60;2124.80
66831;DHT22;53739;44.224;22.528;2022-08-25T14:46:18;819.50;1920.00
66831;DHT22;53739;44.224;22.528;2022-08-25T14:48:46;819.50;2022.40
66831;DHT22;53739;44.224;22.528;2022-08-25T14:51:14;819.60;1996.80
66831;DHT22;53739;44.224;22.528;2022-08-25T14:53:41;819.50;2048.00
66831;DHT22;53739;44.224;22.528;2022-08-25T14:56:13;819.60;2022.40
66831;DHT22;53739;44.224;22.528;2022-08-25T14:58:45;819.40;2073.60
66831;DHT22;53739;44.224;22.528;2022-08-25T15:01:13;819.30;2048.00
66831;DHT22;53739;44.224;22.528;2022-08-25T15:03:41;819.30;2150.40
66831;DHT22;53739;44.224;22.528;2022-08-25T15:06:10;794.50;2201.60
66831;DHT22;53739;44.224;22.528;2022-08-25T15:08:37;794.50;2099.20
66831;DHT22;53739;44.224;22.528;2022-08-25T15:11:21;794.50;2124.80
66831;DHT22;53739;44.224;22.528;2022-08-25T15:13:47;794.50;2048.00
66831;DHT22;53739;44.224;22.528;2022-08-25T15:16:33;794.50;2176.00
66831;DHT22;53739;44.224;22.528;2022-08-25T15:19:05;794.40;2150.40
66831;DHT22;53739;44.224;22.528;2022-08-25T15:21:31;794.40;2150.40
66831;DHT22;53739;44.224;22.528;2022-08-25T15:23:58;794.40;2150.40
66831;DHT22;53739;44.224;22.528;2022-08-25T15:26:25;794.40;2124.80
66831;DHT22;53739;44.224;22.528;2022-08-25T15:28:51;794.20;2227.20
66831;DHT22;53739;44.224;22.528;2022-08-25T15:31:19;794.20;2099.20
66831;DHT22;53739;44.224;22.528;2022-08-25T15:33:45;794.00;2252.80
66831;DHT22;53739;44.224;22.528;2022-08-25T15:36:14;793.90;2124.80
66831;DHT22;53739;44.224;22.528;2022-08-25T15:38:42;793.80;2201.60
66831;DHT22;53739;44.224;22.528;2022-08-25T15:41:09;793.70;2150.40
66831;DHT22;53739;44.224;22.528;2022-08-25T15:43:36;793.70;2252.80
66831;DHT22;53739;44.224;22.528;2022-08-25T15:46:04;793.60;2227.20
66831;DHT22;53739;44.224;22.528;2022-08-25T15:48:31;768.90;2176.00
66831;DHT22;53739;44.224;22.528;2022-08-25T15:50:57;768.90;2252.80
66831;DHT22;53739;44.224;22.528;2022-08-25T15:53:26;768.80;2227.20
66831;DHT22;53739;44.224;22.528;2022-08-25T15:55:53;768.80;2278.40
66831;DHT22;53739;44.224;22.528;2022-08-25T15:58:23;768.80;2252.80
66831;DHT22;53739;44.224;22.528;2022-08-25T16:00:49;768.70;2304.00
66831;DHT22;53739;44.224;22.528;2022-08-25T16:03:15;768.80;2304.00
66831;DHT22;53739;44.224;22.528;2022-08-25T16:05:42;768.60;2329.60
66831;DHT22;53739;44.224;22.528;2022-08-25T16:08:09;768.60;2355.20
66831;DHT22;53739;44.224;22.528;2022-08-25T16:10:38;768.50;2380.80
66831;DHT22;53739;44.224;22.528;2022-08-25T16:13:04;768.40;2406.40
66831;DHT22;53739;44.224;22.528;2022-08-25T16:15:32;768.30;2432.00
66831;DHT22;53739;44.224;22.528;2022-08-25T16:17:59;768.10;2432.00
66831;DHT22;53739;44.224;22.528;2022-08-25T16:20:26;768.10;2432.00
66831;DHT22;53739;44.224;22.528;2022-08-25T16:22:52;768.00;2432.00
66831;DHT22;53739;44.224;22.528;2022-08-25T16:25:19;743.30;2432.00
66831;DHT22;53739;44.224;22.528;2022-08-25T16:27:45;743.20;2432.00
66831;DHT22;53739;44.224;22.528;2022-08-25T16:30:11;743.10;2432.00
66831;DHT22;53739;44.224;22.528;2022-08-25T16:32:40;743.10;2432.00
66831;DHT22;53739;44.224;22.528;2022-08-25T16:35:07;743.00;2432.00
66831;DHT22;53739;44.224;22.528;2022-08-25T16:37:34;743.00;2432.00
66831;DHT22;53739;44.224;22.528;2022-08-25T16:40:01;742.90;2432.00
66831;DHT22;53739;44.224;22.528;2022-08-25T16:42:27;742.90;2432.00
66831;DHT22;53739;44.224;22.528;2022-08-25T16:44:56;742.80;2432.00
66831;DHT22;53739;44.224;22.528;2022-08-25T16:47:22;742.70;2432.00
66831;DHT22;53739;44.224;22.528;2022-08-25T16:49:48;742.60;2432.00
66831;DHT22;53739;44.224;22.528;2022-08-25T16:52:15;742.50;2432.00
66831;DHT22;53739;44.224;22.528;2022-08-25T16:58:02;742.40;2432.00
66831;DHT22;53739;44.224;22.528;2022-08-25T17:00:34;742.40;2432.00
66831;DHT22;53739;44.224;22.528;2022-08-25T17:13:18;717.40;2432.00
66831;DHT22;53739;44.224;22.528;2022-08-25T17:16:16;717.30;2432.00
66831;DHT22;53739;44.224;22.528;2022-08-25T17:29:56;716.90;2432.00
66831;DHT22;53739;44.224;22.528;2022-08-25T17:39:35;692.10;2432.00
66831;DHT22;53739;44.224;22.528;2022-08-25T17:44:45;692.00;2432.00
66831;DHT22;53739;44.224;22.528;2022-08-25T17:47:16;691.90;2432.00
66831;DHT22;53739;44.224;22.528;2022-08-25T17:49:42;691.90;2432.00
66831;DHT22;53739;44.224;22.528;2022-08-25T17:52:08;691.90;2432.00
66831;DHT22;53739;44.224;22.528;2022-08-25T17:54:34;691.80;2432.00
66831;DHT22;53739;44.224;22.528;2022-08-25T17:57:00;691.80;2432.00
66831;DHT22;53739;44.224;22.528;2022-08-25T17:59:28;691.80;2432.00
66831;DHT22;53739;44.224;22.528;2022-08-25T18:01:54;691.70;2432.00
66831;DHT22;53739;44.224;22.528;2022-08-25T18:04:20;691.70;2432.00
66831;DHT22;53739;44.224;22.528;2022-08-25T18:06:46;691.70;2432.00
66831;DHT22;53739;44.224;22.528;2022-08-25T18:09:14;691.70;2432.00
66831;DHT22;53739;44.224;22.528;2022-08-25T18:11:40;691.70;2432.00
66831;DHT22;53739;44.224;22.528;2022-08-25T18:14:06;691.60;2432.00
66831;DHT22;53739;44.224;22.528;2022-08-25T18:18:59;691.70;2432.00
66831;DHT22;53739;44.224;22.528;2022-08-25T18:21:25;691.60;2432.00
66831;DHT22;53739;44.224;22.528;2022-08-25T18:23:51;691.60;2432.00
66831;DHT22;53739;44.224;22.528;2022-08-25T18:26:20;691.50;2432.00
66831;DHT22;53739;44.224;22.528;2022-08-25T18:28:48;691.40;2432.00
66831;DHT22;53739;44.224;22.528;2022-08-25T18:31:16;691.40;2432.00
66831;DHT22;53739;44.224;22.528;2022-08-25T18:36:59;691.50;2432.00
66831;DHT22;53739;44.224;22.528;2022-08-25T18:56:26;691.40;2432.00
66831;DHT22;53739;44.224;22.528;2022-08-25T18:58:52;691.30;2432.00
66831;DHT22;53739;44.224;22.528;2022-08-25T19:01:18;691.30;2432.00
66831;DHT22;53739;44.224;22.528;2022-08-25T19:03:44;691.40;2432.00
66831;DHT22;53739;44.224;22.528;2022-08-25T19:06:10;691.20;2432.00
66831;DHT22;53739;44.224;22.528;2022-08-25T19:08:36;691.20;2432.00
66831;DHT22;53739;44.224;22.528;2022-08-25T19:11:05;691.20;2432.00
66831;DHT22;53739;44.224;22.528;2022-08-25T19:13:31;666.50;2432.00
66831;DHT22;53739;44.224;22.528;2022-08-25T19:15:57;666.50;2432.00
66831;DHT22;53739;44.224;22.528;2022-08-25T19:18:24;666.50;2432.00
66831;DHT22;53739;44.224;22.528;2022-08-25T19:45:36;666.50;2432.00
66831;DHT22;53739;44.224;22.528;2022-08-25T19:48:15;666.50;2432.00
66831;DHT22;53739;44.224;22.528;2022-08-25T19:50:44;666.30;2432.00
66831;DHT22;53739;44.224;22.528;2022-08-25T19:53:13;666.30;2432.00
66831;DHT22;53739;44.224;22.528;2022-08-25T19:55:39;666.30;2432.00
66831;DHT22;53739;44.224;22.528;2022-08-25T19:58:08;666.30;2432.00
66831;DHT22;53739;44.224;22.528;2022-08-25T20:14:09;666.20;2432.00
66831;DHT22;53739;44.224;22.528;2022-08-25T20:16:36;666.20;2432.00
66831;DHT22;53739;44.224;22.528;2022-08-25T20:19:07;666.20;2432.00
66831;DHT22;53739;44.224;22.528;2022-08-25T20:21:34;666.20;2432.00
66831;DHT22;53739;44.224;22.528;2022-08-25T20:24:04;666.10;2432.00
66831;DHT22;53739;44.224;22.528;2022-08-25T20:26:48;666.20;2432.00
66831;DHT22;53739;44.224;22.528;2022-08-25T20:29:15;666.10;2432.00
66831;DHT22;53739;44.224;22.528;2022-08-25T20:31:40;666.10;2432.00
66831;DHT22;53739;44.224;22.528;2022-08-25T20:34:06;666.10;2432.00
66831;DHT22;53739;44.224;22.528;2022-08-25T20:36:33;666.00;2432.00
66831;DHT22;53739;44.224;22.528;2022-08-25T20:38:59;666.00;2432.00
66831;DHT22;53739;44.224;22.528;2022-08-25T20:41:25;665.90;2432.00
66831;DHT22;53739;44.224;22.528;2022-08-25T20:43:51;666.00;2432.00
66831;DHT22;53739;44.224;22.528;2022-08-25T20:46:17;665.90;2432.00
66831;DHT22;53739;44.224;22.528;2022-08-25T20:48:43;665.90;2432.00
66831;DHT22;53739;44.224;22.528;2022-08-25T20:51:10;665.90;2432.00
66831;DHT22;53739;44.224;22.528;2022-08-25T20:53:38;665.90;2432.00
66831;DHT22;53739;44.224;22.528;2022-08-25T20:56:09;665.90;2432.00
66831;DHT22;53739;44.224;22.528;2022-08-25T20:58:39;665.90;2432.00
66831;DHT22;53739;44.224;22.528;2022-08-25T21:01:26;665.70;2432.00
66831;DHT22;53739;44.224;22.528;2022-08-25T21:23:47;665.60;2432.00
66831;DHT22;53739;44.224;22.528;2022-08-25T21:26:16;665.60;2432.00
66831;DHT22;53739;44.224;22.528;2022-08-25T21:31:08;665.60;2432.00
66831;DHT22;53739;44.224;22.528;2022-08-25T21:33:35;640.70;2432.00
66831;DHT22;53739;44.224;22.528;2022-08-25T21:55:39;640.70;2432.00
66831;DHT22;53739;44.224;22.528;2022-08-25T21:58:06;640.60;2432.00
66831;DHT22;53739;44.224;22.528;2022-08-25T22:00:32;640.50;2432.00
66831;DHT22;53739;44.224;22.528;2022-08-25T22:02:59;640.40;2432.00
66831;DHT22;53739;44.224;22.528;2022-08-25T22:05:25;640.20;2432.00
66831;DHT22;53739;44.224;22.528;2022-08-25T22:07:51;640.30;2432.00
66831;DHT22;53739;44.224;22.528;2022-08-25T22:10:17;640.20;2432.00
66831;DHT22;53739;44.224;22.528;2022-08-25T22:12:45;640.20;2432.00
66831;DHT22;53739;44.224;22.528;2022-08-25T22:15:11;640.20;2432.00
66831;DHT22;53739;44.224;22.528;2022-08-25T22:17:37;640.20;2432.00
66831;DHT22;53739;44.224;22.528;2022-08-25T22:20:04;640.20;2432.00
66831;DHT22;53739;44.224;22.528;2022-08-25T22:22:30;640.20;2432.00
66831;DHT22;53739;44.224;22.528;2022-08-25T22:24:56;640.20;2432.00
66831;DHT22;53739;44.224;22.528;2022-08-25T22:27:21;640.20;2432.00
66831;DHT22;53739;44.224;22.528;2022-08-25T22:29:47;640.20;2432.00
66831;DHT22;53739;44.224;22.528;2022-08-25T22:32:14;640.20;2432.00
66831;DHT22;53739;44.224;22.528;2022-08-25T22:34:40;640.20;2432.00
66831;DHT22;53739;44.224;22.528;2022-08-25T22:37:05;640.20;2432.00
66831;DHT22;53739;44.224;22.528;2022-08-25T22:39:32;640.20;2432.00
66831;DHT22;53739;44.224;22.528;2022-08-25T22:41:58;640.20;2432.00
66831;DHT22;53739;44.224;22.528;2022-08-25T22:44:24;640.10;2432.00
66831;DHT22;53739;44.224;22.528;2022-08-25T22:46:50;640.10;2432.00
66831;DHT22;53739;44.224;22.528;2022-08-25T22:49:17;640.00;2432.00
66831;DHT22;53739;44.224;22.528;2022-08-25T22:51:43;640.10;2432.00